Time;durP1;ratioP1;P1;durP2;ratioP2;P2;SDS_P1;SDS_P2;PMS_P1;PMS_P2;Temp;Humidity;BMP_temperature;BMP_pressure;BME280_temperature;BME280_humidity;BME280_pressure;Samples;Min_cycle;Max_cycle;Signal;HPM_P1;HPM_P2
2023/11/07 00:00:47;;;;;;;0.93;0.60;;;11.10;99.90;;;;;;10013245;28;20029;-81
2023/11/07 00:05:37;;;;;;;1.73;0.70;;;11.10;99.90;;;;;;10016621;28;20041;-78
2023/11/07 00:10:28;;;;;;;2.08;0.43;;;11.10;99.90;;;;;;10019474;28;20565;-78
2023/11/07 00:15:20;;;;;;;1.65;0.73;;;11.00;99.90;;;;;;10018932;28;20550;-79
2023/11/07 00:20:11;;;;;;;1.42;0.85;;;11.00;99.90;;;;;;10020563;28;20200;-79
2023/11/07 00:25:02;;;;;;;1.65;0.50;;;10.90;99.90;;;;;;10018760;28;20036;-78
2023/11/07 00:29:58;;;;;;;0.80;0.57;;;10.90;99.90;;;;;;10020998;28;20076;-79
2023/11/07 00:34:52;;;;;;;1.08;0.43;;;10.80;99.90;;;;;;10019618;28;20072;-81
2023/11/07 00:39:42;;;;;;;1.02;0.70;;;10.80;99.90;;;;;;10020386;28;20050;-75
2023/11/07 00:44:33;;;;;;;1.23;0.70;;;10.70;99.90;;;;;;10009568;28;20055;-77
2023/11/07 00:49:24;;;;;;;0.80;0.40;;;10.80;99.90;;;;;;10015587;28;20026;-75
2023/11/07 00:54:14;;;;;;;2.15;0.52;;;10.80;99.90;;;;;;10001751;28;20777;-76
2023/11/07 00:59:05;;;;;;;0.70;0.57;;;10.90;99.90;;;;;;10004682;28;20045;-75
2023/11/07 01:03:55;;;;;;;1.40;0.50;;;10.80;99.90;;;;;;10017924;28;20514;-75
2023/11/07 01:08:46;;;;;;;1.67;0.40;;;10.80;99.90;;;;;;10001658;28;20706;-77
2023/11/07 01:13:38;;;;;;;3.42;0.80;;;10.80;99.90;;;;;;10015398;28;20368;-79
2023/11/07 01:18:28;;;;;;;1.27;0.60;;;10.70;99.90;;;;;;10016176;28;20109;-76
2023/11/07 01:23:19;;;;;;;0.40;0.40;;;10.80;99.90;;;;;;10017122;28;20112;-81
2023/11/07 01:28:11;;;;;;;0.65;0.45;;;10.80;99.90;;;;;;10015389;28;20406;-76
2023/11/07 01:33:02;;;;;;;1.13;0.60;;;10.80;99.90;;;;;;10014083;28;20511;-76
2023/11/07 01:37:53;;;;;;;0.80;0.40;;;10.70;99.90;;;;;;10015442;28;20022;-76
2023/11/07 01:42:50;;;;;;;0.40;0.40;;;10.70;99.90;;;;;;10016664;28;20065;-77
2023/11/07 01:47:44;;;;;;;1.25;0.68;;;10.70;99.90;;;;;;10014589;28;20018;-77
2023/11/07 01:52:35;;;;;;;0.63;0.50;;;10.70;99.90;;;;;;10016733;28;20053;-76
2023/11/07 01:57:26;;;;;;;2.42;0.68;;;10.70;99.90;;;;;;9999025;28;20033;-76
2023/11/07 02:02:22;;;;;;;1.23;0.50;;;10.70;99.90;;;;;;10015805;28;20110;-76
2023/11/07 02:07:36;;;;;;;0.77;0.70;;;10.80;99.90;;;;;;10009696;28;20630;-75
2023/11/07 02:12:27;;;;;;;1.58;0.60;;;10.70;99.90;;;;;;10015571;28;20156;-75
2023/11/07 02:17:18;;;;;;;1.10;0.90;;;10.70;99.90;;;;;;10015813;28;20102;-75
2023/11/07 02:22:12;;;;;;;0.75;0.50;;;10.60;99.90;;;;;;10002565;28;20084;-75
2023/11/07 02:27:04;;;;;;;1.00;0.60;;;10.70;99.90;;;;;;10015404;28;20022;-76
2023/11/07 02:31:56;;;;;;;0.93;0.40;;;10.60;99.90;;;;;;10016696;28;20033;-75
2023/11/07 02:36:47;;;;;;;0.45;0.32;;;10.50;99.90;;;;;;10015314;28;20014;-78
2023/11/07 02:41:38;;;;;;;1.25;0.70;;;10.40;99.90;;;;;;10013995;28;20050;-78
2023/11/07 02:46:38;;;;;;;1.33;0.68;;;10.50;99.90;;;;;;10022209;28;20045;-75
2023/11/07 02:51:29;;;;;;;1.23;0.70;;;10.60;99.90;;;;;;10012225;28;20034;-72
2023/11/07 02:56:25;;;;;;;0.40;0.40;;;10.50;99.90;;;;;;9997892;28;20091;-73
2023/11/07 03:01:21;;;;;;;1.15;0.60;;;10.50;99.90;;;;;;10015387;28;20037;-74
2023/11/07 03:06:12;;;;;;;2.65;0.60;;;10.50;99.90;;;;;;10012841;28;20018;-73
2023/11/07 03:11:21;;;;;;;1.63;1.23;;;10.40;99.90;;;;;;10000143;28;20480;-74
2023/11/07 03:16:21;;;;;;;0.93;0.50;;;10.40;99.90;;;;;;10005805;28;20029;-75
2023/11/07 03:21:11;;;;;;;1.10;0.50;;;10.50;99.90;;;;;;10005671;28;20120;-77
2023/11/07 03:26:03;;;;;;;1.10;0.60;;;10.40;99.90;;;;;;10022567;28;20192;-76
2023/11/07 03:30:54;;;;;;;0.70;0.60;;;10.40;99.90;;;;;;10022449;28;20037;-76
2023/11/07 03:41:49;;;;;;;1.95;0.55;;;10.50;99.90;;;;;;9976541;23;20065;-79
2023/11/07 03:46:40;;;;;;;1.55;0.75;;;10.50;99.90;;;;;;10003967;28;20024;-75
2023/11/07 03:51:31;;;;;;;1.00;0.55;;;10.50;99.90;;;;;;10025075;28;20065;-76
2023/11/07 03:56:22;;;;;;;2.95;0.80;;;10.50;99.90;;;;;;10019178;28;20030;-75
2023/11/07 04:01:13;;;;;;;1.08;0.60;;;10.50;99.90;;;;;;10020645;28;20022;-77
2023/11/07 04:06:04;;;;;;;0.52;0.50;;;10.50;99.90;;;;;;10024304;28;20026;-78
2023/11/07 04:10:55;;;;;;;1.85;0.70;;;10.50;99.90;;;;;;10017777;28;20641;-78
2023/11/07 04:15:46;;;;;;;0.75;0.57;;;10.50;99.90;;;;;;10019340;28;20038;-78
2023/11/07 04:20:38;;;;;;;0.50;0.43;;;10.60;99.90;;;;;;10023429;28;20109;-78
2023/11/07 04:25:30;;;;;;;0.93;0.50;;;10.50;99.90;;;;;;10024756;28;20021;-78
2023/11/07 04:30:22;;;;;;;1.05;0.70;;;10.50;99.90;;;;;;10022325;28;20033;-78
2023/11/07 04:35:13;;;;;;;0.80;0.63;;;10.40;99.90;;;;;;10024301;28;20029;-78
2023/11/07 04:40:05;;;;;;;2.40;0.88;;;10.50;99.90;;;;;;10000211;28;20053;-78
2023/11/07 04:44:56;;;;;;;1.48;1.00;;;10.50;99.90;;;;;;10019798;28;20025;-78
2023/11/07 04:49:47;;;;;;;0.65;0.43;;;10.40;99.90;;;;;;10024407;28;20038;-74
2023/11/07 04:54:41;;;;;;;2.05;0.70;;;10.50;99.90;;;;;;10000859;28;20053;-79
2023/11/07 04:59:32;;;;;;;1.42;0.52;;;10.50;99.90;;;;;;10019635;28;20022;-75
2023/11/07 05:04:23;;;;;;;1.42;1.33;;;10.50;99.90;;;;;;10019055;28;20079;-75
2023/11/07 05:09:14;;;;;;;2.67;0.82;;;10.30;99.90;;;;;;10018927;28;20117;-77
2023/11/07 05:14:05;;;;;;;2.50;0.63;;;10.40;99.90;;;;;;10023110;28;20073;-75
2023/11/07 05:18:56;;;;;;;1.77;0.88;;;10.30;99.90;;;;;;10000525;28;20128;-76
2023/11/07 05:23:46;;;;;;;1.58;0.70;;;10.30;99.90;;;;;;9998934;28;20919;-77
2023/11/07 05:28:37;;;;;;;2.42;0.65;;;10.30;99.90;;;;;;10015045;28;20030;-76
2023/11/07 05:33:38;;;;;;;1.55;0.47;;;10.30;99.90;;;;;;10014136;28;20042;-75
2023/11/07 05:38:29;;;;;;;2.50;1.38;;;10.20;99.90;;;;;;9989949;28;20025;-81
2023/11/07 05:43:20;;;;;;;1.75;0.68;;;10.30;99.90;;;;;;9993696;28;20041;-78
2023/11/07 05:48:11;;;;;;;2.75;0.95;;;10.40;99.90;;;;;;10010355;28;20033;-76
2023/11/07 05:53:01;;;;;;;1.40;1.00;;;10.40;99.90;;;;;;10017006;28;20037;-76
2023/11/07 05:57:52;;;;;;;1.75;0.90;;;10.50;99.90;;;;;;10018534;28;20124;-77
2023/11/07 06:02:43;;;;;;;0.82;0.80;;;10.40;99.90;;;;;;10017037;28;20096;-76
2023/11/07 06:07:34;;;;;;;1.48;0.77;;;10.40;99.90;;;;;;10017320;28;20057;-77
2023/11/07 06:12:25;;;;;;;0.98;0.65;;;10.50;99.90;;;;;;10018079;28;20030;-75
2023/11/07 06:17:17;;;;;;;1.50;0.70;;;10.50;99.90;;;;;;10012395;28;20561;-76
2023/11/07 06:22:08;;;;;;;2.58;0.90;;;10.30;99.90;;;;;;10000239;28;20034;-75
2023/11/07 06:26:59;;;;;;;2.22;0.90;;;10.40;99.90;;;;;;10017021;28;20026;-75
2023/11/07 06:31:50;;;;;;;1.15;0.50;;;10.40;99.90;;;;;;10016989;28;20041;-75
2023/11/07 06:36:40;;;;;;;2.45;0.60;;;10.40;99.90;;;;;;10021436;28;20044;-75
2023/11/07 06:41:40;;;;;;;1.17;0.50;;;10.50;99.90;;;;;;10015972;28;20052;-77
2023/11/07 06:46:31;;;;;;;1.77;0.73;;;10.50;99.90;;;;;;10020030;28;20504;-79
2023/11/07 06:51:23;;;;;;;0.73;0.70;;;10.40;99.90;;;;;;10016339;28;20030;-78
2023/11/07 06:56:14;;;;;;;3.30;1.05;;;10.50;99.90;;;;;;9998779;28;20030;-76
2023/11/07 07:01:05;;;;;;;2.95;0.80;;;10.40;99.90;;;;;;10007977;28;20029;-77
2023/11/07 07:05:55;;;;;;;1.27;1.17;;;10.40;99.90;;;;;;10014783;28;20088;-76
2023/11/07 07:10:46;;;;;;;1.63;0.95;;;10.40;99.90;;;;;;10016006;28;20050;-77
2023/11/07 07:15:37;;;;;;;2.05;0.70;;;10.40;99.90;;;;;;10015904;28;20088;-79
2023/11/07 07:20:29;;;;;;;1.48;0.73;;;10.50;99.90;;;;;;10016781;28;20499;-78
2023/11/07 07:25:20;;;;;;;2.90;0.80;;;10.50;99.90;;;;;;10013717;28;20022;-80
2023/11/07 07:30:26;;;;;;;1.52;0.90;;;10.50;99.90;;;;;;10013647;28;20117;-78
2023/11/07 07:35:16;;;;;;;1.90;0.80;;;10.50;99.90;;;;;;9995807;28;20065;-77
2023/11/07 07:40:11;;;;;;;2.05;1.30;;;10.50;99.90;;;;;;10008786;28;20054;-74
2023/11/07 07:45:07;;;;;;;1.30;0.73;;;10.40;99.90;;;;;;10010286;28;20381;-76
2023/11/07 07:49:59;;;;;;;1.30;0.47;;;10.50;99.90;;;;;;10015022;28;20018;-76
2023/11/07 07:54:49;;;;;;;1.58;0.70;;;10.50;99.90;;;;;;10015316;28;20046;-76
2023/11/07 07:59:43;;;;;;;1.48;0.60;;;10.60;99.90;;;;;;10026631;28;20025;-77
2023/11/07 08:04:34;;;;;;;1.70;1.00;;;10.60;99.90;;;;;;10003676;28;20038;-75
2023/11/07 08:09:26;;;;;;;1.83;1.00;;;10.70;99.90;;;;;;10019195;28;20026;-76
2023/11/07 08:14:17;;;;;;;1.67;0.80;;;10.70;99.90;;;;;;10002664;28;20388;-75
2023/11/07 08:24:55;;;;;;;;;;;10.80;99.90;;;;;;10016855;28;20037;-74
2023/11/07 08:29:46;;;;;;;1.33;0.60;;;10.80;99.90;;;;;;10005273;28;19922;-74
2023/11/07 08:34:37;;;;;;;0.88;0.60;;;10.80;99.90;;;;;;10018083;28;20037;-74
2023/11/07 08:39:28;;;;;;;1.88;0.68;;;10.70;99.90;;;;;;10017593;28;20487;-74
2023/11/07 08:44:20;;;;;;;0.85;0.60;;;10.80;99.90;;;;;;10019506;28;20034;-71
2023/11/07 08:49:11;;;;;;;2.03;0.73;;;10.80;99.90;;;;;;10019722;28;20623;-72
2023/11/07 08:54:02;;;;;;;2.88;1.10;;;10.90;99.90;;;;;;10016574;28;20038;-72
2023/11/07 08:58:52;;;;;;;3.70;1.02;;;10.90;99.90;;;;;;10019115;28;20458;-72
2023/11/07 09:03:45;;;;;;;2.97;1.30;;;10.80;99.90;;;;;;10018584;28;20113;-74
2023/11/07 09:08:35;;;;;;;2.50;0.80;;;10.80;99.90;;;;;;10015893;28;20014;-73
2023/11/07 09:13:27;;;;;;;1.42;0.82;;;10.80;99.90;;;;;;10018195;28;20042;-73
2023/11/07 09:18:18;;;;;;;0.95;0.70;;;10.70;99.90;;;;;;10015466;28;20101;-77
2023/11/07 09:23:09;;;;;;;1.30;0.73;;;10.80;99.90;;;;;;10003789;28;20112;-69
2023/11/07 09:27:59;;;;;;;1.60;0.57;;;10.70;99.90;;;;;;10012767;28;20118;-78
2023/11/07 09:32:50;;;;;;;1.02;0.88;;;10.80;99.90;;;;;;10009639;28;20042;-77
2023/11/07 09:37:41;;;;;;;19.33;10.57;;;10.80;99.90;;;;;;10015695;28;20694;-76
2023/11/07 09:42:31;;;;;;;25.15;14.80;;;10.80;99.90;;;;;;10016746;28;20053;-75
2023/11/07 09:47:25;;;;;;;4.15;2.53;;;10.90;99.90;;;;;;10007185;28;20064;-75
2023/11/07 09:58:07;;;;;;;2.00;1.30;;;10.90;99.90;;;;;;10013122;28;20056;-75
2023/11/07 10:02:59;;;;;;;1.65;1.02;;;11.00;99.90;;;;;;10011733;28;20109;-76
2023/11/07 10:18:47;;;;;;;2.30;0.95;;;11.10;99.90;;;;;;10011032;28;20446;-77
2023/11/07 10:23:57;;;;;;;0.80;0.60;;;11.10;99.90;;;;;;10015112;28;20036;-77
2023/11/07 10:28:48;;;;;;;2.90;0.82;;;11.20;99.90;;;;;;10023506;28;20074;-81
2023/11/07 10:33:57;;;;;;;1.58;0.70;;;11.30;99.90;;;;;;10013339;28;20090;-79
2023/11/07 10:49:31;;;;;;;3.08;0.70;;;11.30;99.90;;;;;;10022162;28;20107;-77
2023/11/07 11:00:32;;;;;;;1.05;0.68;;;11.40;99.90;;;;;;10017397;28;20411;-79
2023/11/07 11:05:43;;;;;;;1.98;1.17;;;11.40;99.90;;;;;;10015963;28;20034;-82
2023/11/07 11:10:54;;;;;;;1.98;0.80;;;11.30;99.90;;;;;;10009443;28;20034;-78
2023/11/07 11:16:06;;;;;;;1.63;0.73;;;11.40;99.90;;;;;;10016240;28;20497;-81
2023/11/07 11:21:03;;;;;;;0.60;0.60;;;11.30;99.90;;;;;;10005081;28;20545;-81
2023/11/07 11:26:31;;;;;;;1.13;0.70;;;11.30;99.90;;;;;;10016744;28;20780;-81
2023/11/07 11:31:24;;;;;;;1.48;0.82;;;11.40;99.90;;;;;;10016711;28;20387;-82
2023/11/07 11:36:36;;;;;;;2.40;1.05;;;11.50;99.90;;;;;;10026031;28;20044;-78
2023/11/07 11:53:29;;;;;;;1.35;0.45;;;11.40;99.90;;;;;;10024255;28;20115;-79
2023/11/07 11:58:38;;;;;;;0.77;0.50;;;11.30;99.90;;;;;;10017041;28;20445;-80
2023/11/07 12:03:42;;;;;;;2.88;1.13;;;11.30;99.90;;;;;;10009246;28;20096;-80
2023/11/07 12:08:52;;;;;;;1.42;0.63;;;11.50;99.90;;;;;;9995474;28;20034;-77
2023/11/07 12:19:19;;;;;;;1.13;0.52;;;11.70;99.90;;;;;;10002202;28;20036;-76
2023/11/07 12:24:47;;;;;;;1.75;0.70;;;11.70;99.90;;;;;;10012128;28;20041;-75
2023/11/07 12:29:58;;;;;;;2.30;0.88;;;11.70;99.90;;;;;;10014967;28;20538;-76
2023/11/07 12:40:36;;;;;;;0.65;0.30;;;11.80;99.90;;;;;;10022162;28;20079;-75
2023/11/07 12:50:55;;;;;;;1.83;0.60;;;11.90;99.90;;;;;;10018390;28;20052;-77
2023/11/07 12:56:08;;;;;;;0.98;0.40;;;12.00;99.90;;;;;;10012207;28;20114;-76
2023/11/07 13:01:03;;;;;;;1.48;0.68;;;12.00;99.90;;;;;;10014844;28;20072;-76
2023/11/07 13:06:15;;;;;;;0.83;0.43;;;12.00;99.90;;;;;;10009615;28;20141;-77
2023/11/07 13:27:40;;;;;;;0.55;0.45;;;11.90;99.90;;;;;;10015509;28;20236;-77
2023/11/07 13:38:18;;;;;;;0.55;0.32;;;11.70;99.90;;;;;;10018404;28;20068;-77
2023/11/07 13:43:30;;;;;;;0.60;0.38;;;11.70;99.90;;;;;;10014785;28;20061;-76
2023/11/07 13:48:21;;;;;;;0.30;0.20;;;11.70;99.90;;;;;;10008051;28;20026;-74
2023/11/07 13:53:31;;;;;;;0.35;0.28;;;11.70;99.90;;;;;;10016450;28;20084;-76
2023/11/07 14:04:47;;;;;;;1.25;0.28;;;11.60;99.90;;;;;;10011783;28;20163;-81
2023/11/07 14:09:39;;;;;;;7.35;2.78;;;11.50;99.90;;;;;;10005339;28;20026;-77
2023/11/07 14:19:59;;;;;;;1.45;0.40;;;11.60;99.90;;;;;;10016651;28;20095;-73
2023/11/07 14:30:18;;;;;;;0.88;0.50;;;11.60;99.90;;;;;;10014167;28;20029;-74
2023/11/07 14:35:46;;;;;;;0.90;0.50;;;11.80;99.90;;;;;;10014477;28;20034;-74
2023/11/07 14:40:57;;;;;;;1.38;0.80;;;11.60;99.90;;;;;;10009222;28;20049;-76
2023/11/07 14:45:48;;;;;;;0.73;0.52;;;11.70;99.90;;;;;;10010934;28;20065;-74
2023/11/07 14:50:57;;;;;;;2.80;0.93;;;11.80;99.90;;;;;;10016051;28;20026;-74
2023/11/07 15:01:38;;;;;;;3.45;0.88;;;11.70;99.90;;;;;;10015537;28;20152;-78
2023/11/07 15:11:58;;;;;;;2.03;0.70;;;11.80;99.90;;;;;;10021284;28;20567;-79
2023/11/07 15:27:44;;;;;;;2.35;0.70;;;11.90;99.90;;;;;;10024985;28;20431;-76
2023/11/07 15:43:31;;;;;;;;;;;11.70;99.90;;;;;;10019337;28;20467;-75
2023/11/07 15:54:27;;;;;;;;;;;11.70;99.90;;;;;;10011973;28;20576;-77
2023/11/07 15:59:18;;;;;;;2.17;0.85;;;11.70;99.90;;;;;;10026823;28;19964;-77
2023/11/07 16:09:56;;;;;;;1.77;0.75;;;11.50;99.90;;;;;;10017623;28;20041;-79
2023/11/07 16:14:48;;;;;;;2.10;0.80;;;11.60;99.90;;;;;;10019203;28;20040;-73
2023/11/07 16:19:39;;;;;;;2.47;0.80;;;11.60;99.90;;;;;;10020178;28;20125;-74
2023/11/07 16:24:30;;;;;;;2.22;1.10;;;11.50;99.90;;;;;;10020250;28;20109;-75
2023/11/07 16:29:21;;;;;;;3.10;0.98;;;11.50;99.90;;;;;;10020284;28;20096;-73
2023/11/07 16:34:12;;;;;;;1.02;0.77;;;11.50;99.90;;;;;;10023248;28;20034;-81
2023/11/07 16:39:05;;;;;;;1.10;0.47;;;11.60;99.90;;;;;;10020324;28;20060;-77
2023/11/07 16:43:55;;;;;;;4.00;0.90;;;11.50;99.90;;;;;;10004211;28;20022;-78
2023/11/07 16:48:46;;;;;;;1.35;0.98;;;11.50;99.90;;;;;;10017201;28;20353;-72
2023/11/07 16:53:37;;;;;;;1.38;1.05;;;11.50;99.90;;;;;;10009004;28;20096;-69
2023/11/07 16:58:29;;;;;;;4.05;0.90;;;11.50;99.90;;;;;;10018443;28;20033;-75
2023/11/07 17:03:20;;;;;;;1.92;0.80;;;11.30;99.90;;;;;;10018916;28;20061;-73
2023/11/07 17:08:21;;;;;;;2.20;1.13;;;11.40;99.90;;;;;;10019518;28;20037;-72
2023/11/07 17:13:12;;;;;;;4.82;1.55;;;11.40;99.90;;;;;;10018001;28;20558;-73
2023/11/07 17:18:03;;;;;;;37.38;18.02;;;11.20;99.90;;;;;;10000087;28;20034;-73
2023/11/07 17:22:53;;;;;;;14.05;7.65;;;11.30;99.90;;;;;;10019023;28;20076;-66
2023/11/07 17:27:46;;;;;;;4.85;2.70;;;11.30;99.90;;;;;;10021167;28;20033;-67
2023/11/07 17:32:37;;;;;;;3.90;1.75;;;11.30;99.90;;;;;;10013877;28;20033;-67
2023/11/07 17:37:28;;;;;;;4.60;1.38;;;11.30;99.90;;;;;;10022921;28;20724;-68
2023/11/07 17:42:19;;;;;;;4.43;1.90;;;11.30;99.90;;;;;;10016781;28;20685;-69
2023/11/07 17:47:10;;;;;;;2.08;1.20;;;11.20;99.90;;;;;;10014340;28;20026;-68
2023/11/07 17:52:05;;;;;;;3.70;1.35;;;11.00;99.90;;;;;;10010617;28;20041;-69
2023/11/07 17:56:56;;;;;;;4.50;2.30;;;11.10;99.90;;;;;;9994254;28;20349;-69
2023/11/07 18:01:47;;;;;;;3.80;1.77;;;11.20;99.90;;;;;;9997345;28;20040;-70
2023/11/07 18:06:40;;;;;;;5.10;2.08;;;11.00;99.90;;;;;;10009021;28;20128;-70
2023/11/07 18:11:33;;;;;;;2.45;1.60;;;11.10;99.90;;;;;;10014522;28;20033;-69
2023/11/07 18:16:24;;;;;;;2.65;1.60;;;11.10;99.90;;;;;;10006929;28;20021;-69
2023/11/07 18:21:14;;;;;;;3.88;1.42;;;11.00;99.90;;;;;;10005591;28;20489;-71
2023/11/07 18:26:05;;;;;;;4.15;1.30;;;11.00;99.90;;;;;;10005228;28;20028;-71
2023/11/07 18:30:56;;;;;;;4.50;1.58;;;11.00;99.90;;;;;;10007703;28;20038;-72
2023/11/07 18:35:47;;;;;;;2.38;1.23;;;11.00;99.90;;;;;;10007979;28;20566;-73
2023/11/07 18:40:39;;;;;;;2.53;1.40;;;11.00;99.90;;;;;;10013353;28;20050;-69
2023/11/07 18:45:30;;;;;;;4.82;2.35;;;10.90;99.90;;;;;;10009411;28;20095;-67
2023/11/07 18:50:21;;;;;;;2.28;1.23;;;10.90;99.90;;;;;;10008580;28;20136;-68
2023/11/07 18:55:11;;;;;;;3.50;2.03;;;11.00;99.90;;;;;;10011171;28;20034;-69
2023/11/07 19:00:03;;;;;;;1.85;1.40;;;10.80;99.90;;;;;;10015165;28;20388;-69
2023/11/07 19:04:54;;;;;;;2.95;1.50;;;10.90;99.90;;;;;;10015089;28;20450;-69
2023/11/07 19:09:45;;;;;;;3.45;1.45;;;10.80;99.90;;;;;;10002134;28;20098;-68
2023/11/07 19:14:38;;;;;;;1.85;1.00;;;10.80;99.90;;;;;;10003776;28;20052;-69
2023/11/07 19:19:29;;;;;;;3.45;1.67;;;10.80;99.90;;;;;;9998213;28;20022;-71
2023/11/07 19:24:20;;;;;;;2.92;1.35;;;10.70;99.90;;;;;;10000687;28;20109;-70
2023/11/07 19:29:11;;;;;;;3.85;1.60;;;10.70;99.90;;;;;;10009725;28;20793;-70
2023/11/07 19:34:02;;;;;;;3.22;1.23;;;10.70;99.90;;;;;;10010837;28;20055;-70
2023/11/07 19:38:52;;;;;;;1.63;1.25;;;10.60;99.90;;;;;;10005968;28;20029;-68
2023/11/07 19:43:43;;;;;;;3.00;1.05;;;10.60;99.90;;;;;;10009103;28;20443;-68
2023/11/07 19:48:35;;;;;;;2.03;1.38;;;10.40;99.90;;;;;;10007706;28;20549;-68
2023/11/07 19:53:28;;;;;;;1.92;1.08;;;10.40;99.90;;;;;;9982108;28;20056;-67
2023/11/07 19:58:19;;;;;;;2.90;1.35;;;10.40;99.90;;;;;;10012446;28;20510;-68
2023/11/07 20:03:10;;;;;;;2.78;1.15;;;10.40;99.90;;;;;;10014462;28;20110;-69
2023/11/07 20:08:02;;;;;;;2.53;1.35;;;10.30;99.90;;;;;;10018084;28;20222;-67
2023/11/07 20:12:54;;;;;;;3.22;1.52;;;10.30;99.90;;;;;;10019863;28;20049;-71
2023/11/07 20:17:44;;;;;;;1.88;1.63;;;10.30;99.90;;;;;;10002817;28;20026;-69
2023/11/07 20:22:35;;;;;;;1.70;1.20;;;10.30;99.90;;;;;;10003519;28;20026;-71
2023/11/07 20:27:27;;;;;;;3.92;1.50;;;10.30;99.90;;;;;;10021689;28;20018;-71
2023/11/07 20:32:17;;;;;;;2.17;1.42;;;10.20;99.90;;;;;;10019694;28;20042;-70
2023/11/07 20:37:08;;;;;;;1.17;0.73;;;10.10;99.90;;;;;;10020798;28;20076;-72
2023/11/07 20:41:59;;;;;;;1.77;1.35;;;10.10;99.90;;;;;;10000676;28;20060;-69
2023/11/07 20:46:55;;;;;;;2.13;1.70;;;10.10;99.90;;;;;;10021249;28;20021;-71
2023/11/07 20:51:47;;;;;;;2.78;1.80;;;10.10;99.90;;;;;;9997699;28;20542;-72
2023/11/07 20:56:38;;;;;;;2.20;1.40;;;10.00;99.90;;;;;;10016757;28;20403;-72
2023/11/07 21:01:29;;;;;;;2.50;1.67;;;10.10;99.90;;;;;;10019569;28;20496;-68
2023/11/07 21:06:20;;;;;;;15.30;7.20;;;10.00;99.90;;;;;;10017043;28;20025;-68
2023/11/07 21:11:12;;;;;;;40.15;21.80;;;10.00;99.90;;;;;;10021894;28;20116;-68
2023/11/07 21:16:05;;;;;;;7.07;4.65;;;10.00;99.90;;;;;;10003997;28;20172;-69
2023/11/07 21:20:55;;;;;;;2.40;1.52;;;9.90;99.90;;;;;;10018003;28;20033;-68
2023/11/07 21:25:46;;;;;;;2.70;1.50;;;9.90;99.90;;;;;;10017798;28;20101;-69
2023/11/07 21:30:37;;;;;;;4.97;1.60;;;9.80;99.90;;;;;;9987280;28;20038;-69
2023/11/07 21:35:29;;;;;;;4.60;1.77;;;9.80;99.90;;;;;;10020567;28;20745;-68
2023/11/07 21:40:19;;;;;;;3.45;1.77;;;9.80;99.90;;;;;;9993103;28;20065;-70
2023/11/07 21:45:11;;;;;;;2.28;1.33;;;9.70;99.90;;;;;;10016067;28;20439;-69
2023/11/07 21:50:05;;;;;;;2.90;1.77;;;9.60;99.90;;;;;;10009934;28;20018;-69
2023/11/07 21:54:56;;;;;;;3.38;1.38;;;9.70;99.90;;;;;;10017325;28;20034;-69
2023/11/07 21:59:46;;;;;;;5.15;2.08;;;9.60;99.90;;;;;;10021731;28;20463;-69
2023/11/07 22:04:41;;;;;;;2.67;2.15;;;9.50;99.90;;;;;;10014186;28;20432;-69
2023/11/07 22:09:32;;;;;;;3.60;1.90;;;9.60;99.90;;;;;;9993624;28;20049;-69
2023/11/07 22:14:22;;;;;;;3.40;1.60;;;9.60;99.90;;;;;;9995833;28;20803;-69
2023/11/07 22:19:13;;;;;;;4.18;1.65;;;9.60;99.90;;;;;;10017040;28;20034;-69
2023/11/07 22:24:04;;;;;;;3.95;1.63;;;9.60;99.90;;;;;;10016413;28;20037;-71
2023/11/07 22:28:55;;;;;;;4.32;2.25;;;9.50;99.90;;;;;;10018446;28;20033;-69
2023/11/07 22:33:46;;;;;;;2.92;1.48;;;9.60;99.90;;;;;;10020758;28;20129;-70
2023/11/07 22:38:37;;;;;;;2.22;1.50;;;9.60;99.90;;;;;;10013038;28;20108;-70
2023/11/07 22:43:27;;;;;;;3.47;1.88;;;9.60;99.90;;;;;;10014867;28;20100;-69
2023/11/07 22:48:18;;;;;;;2.75;1.38;;;9.60;99.90;;;;;;10000905;28;20125;-69
2023/11/07 22:53:09;;;;;;;3.20;1.13;;;9.50;99.90;;;;;;9996354;28;20133;-68
2023/11/07 22:58:00;;;;;;;1.90;1.30;;;9.60;99.90;;;;;;10013641;28;20411;-68
2023/11/07 23:02:51;;;;;;;2.58;1.40;;;9.60;99.90;;;;;;10016082;28;20081;-68
2023/11/07 23:07:41;;;;;;;4.30;1.63;;;9.60;99.90;;;;;;10015496;28;20496;-69
2023/11/07 23:12:32;;;;;;;2.15;1.20;;;9.60;99.90;;;;;;10015821;28;20045;-69
2023/11/07 23:17:22;;;;;;;1.90;1.50;;;9.60;99.90;;;;;;10015865;28;20049;-69
2023/11/07 23:22:14;;;;;;;3.38;1.70;;;9.60;99.90;;;;;;10018190;28;20038;-69
2023/11/07 23:27:04;;;;;;;1.77;1.27;;;9.60;99.90;;;;;;10012229;28;20029;-71
2023/11/07 23:31:55;;;;;;;3.72;1.63;;;9.60;99.90;;;;;;10021409;28;20038;-69
2023/11/07 23:36:46;;;;;;;3.30;1.60;;;9.60;99.90;;;;;;10026401;28;20037;-70
2023/11/07 23:41:37;;;;;;;2.65;1.60;;;9.60;99.90;;;;;;10023533;28;20125;-69
2023/11/07 23:46:28;;;;;;;3.45;1.40;;;9.60;99.90;;;;;;10024975;28;20698;-69
2023/11/07 23:51:19;;;;;;;3.10;1.35;;;9.60;99.90;;;;;;10021022;28;20085;-68
2023/11/07 23:56:10;;;;;;;4.95;1.48;;;9.60;99.90;;;;;;10022313;28;20076;-69
